Time;durP1;ratioP1;P1;durP2;ratioP2;P2;SDS_P1;SDS_P2;PMS_P1;PMS_P2;Temp;Humidity;BMP_temperature;BMP_pressure;BME280_temperature;BME280_humidity;BME280_pressure;Samples;Min_cycle;Max_cycle;Signal;HPM_P1;HPM_P2
2024/04/05 00:01:59;;;;;;;51.45;11.50;;;14.00;99.90;;;14.36;100.00;100796.03;5012938;28;20046;-66
2024/04/05 00:04:28;;;;;;;40.83;9.18;;;14.00;99.90;;;14.37;100.00;100791.59;5012698;28;20049;-66
2024/04/05 00:06:56;;;;;;;46.45;10.05;;;14.00;99.90;;;14.36;100.00;100787.22;5012808;28;20046;-66
2024/04/05 00:09:22;;;;;;;42.80;11.43;;;14.00;99.90;;;14.40;100.00;100791.56;5012671;28;20096;-66
2024/04/05 00:11:49;;;;;;;40.03;9.73;;;14.10;99.90;;;14.39;100.00;100781.81;5012746;28;20076;-66
2024/04/05 00:14:16;;;;;;;32.72;9.70;;;14.00;99.90;;;14.46;100.00;100780.75;5012760;28;20454;-65
2024/04/05 00:16:44;;;;;;;39.42;10.05;;;14.10;99.90;;;14.43;100.00;100775.50;4996047;28;20487;-66
2024/04/05 00:19:11;;;;;;;35.65;8.43;;;14.10;99.90;;;14.50;100.00;100785.09;5012712;28;20068;-66
2024/04/05 00:21:38;;;;;;;39.30;8.88;;;14.10;99.90;;;14.54;100.00;100773.47;5012415;28;20049;-66
2024/04/05 00:24:05;;;;;;;31.23;8.00;;;14.20;99.90;;;14.53;100.00;100766.41;5012574;28;20469;-66
2024/04/05 00:26:33;;;;;;;31.02;8.15;;;14.20;99.90;;;14.56;100.00;100766.34;5012341;28;20042;-66
2024/04/05 00:28:59;;;;;;;33.78;8.45;;;14.20;99.90;;;14.57;100.00;100776.09;5012530;28;20045;-66
2024/04/05 00:31:26;;;;;;;28.58;7.75;;;14.20;99.90;;;14.54;100.00;100759.31;5012400;28;20445;-65
2024/04/05 00:33:54;;;;;;;33.50;8.98;;;14.20;99.90;;;14.61;100.00;100766.25;5012205;28;20546;-66
2024/04/05 00:36:21;;;;;;;28.77;8.18;;;14.30;99.90;;;14.60;100.00;100762.69;5012800;28;20045;-66
2024/04/05 00:38:48;;;;;;;26.45;7.82;;;14.30;99.90;;;14.68;100.00;100768.72;5012199;28;20084;-66
2024/04/05 00:41:15;;;;;;;26.65;8.27;;;14.30;99.90;;;14.71;100.00;100770.47;5012241;28;20057;-67
2024/04/05 00:43:42;;;;;;;27.17;7.82;;;14.30;99.90;;;14.72;100.00;100774.84;5012323;28;20041;-66
2024/04/05 00:46:10;;;;;;;25.63;8.55;;;14.40;99.90;;;14.79;100.00;100777.34;5011890;28;20041;-66
2024/04/05 00:48:36;;;;;;;27.40;8.07;;;14.40;99.90;;;14.86;100.00;100775.44;5011838;28;20046;-66
2024/04/05 00:51:07;;;;;;;29.92;8.95;;;14.50;99.90;;;14.86;100.00;100780.75;4994369;28;20537;-66
2024/04/05 00:53:34;;;;;;;26.25;8.98;;;14.50;99.90;;;14.87;100.00;100782.50;5010309;28;20667;-65
2024/04/05 00:56:02;;;;;;;32.22;9.23;;;14.50;99.90;;;14.86;100.00;100764.78;5009783;28;20383;-66
2024/04/05 00:58:29;;;;;;;29.00;8.95;;;14.50;99.90;;;14.84;100.00;100761.25;5010226;28;20407;-66
2024/04/05 01:00:57;;;;;;;31.83;8.43;;;14.50;99.90;;;14.64;100.00;100753.72;5010106;28;20712;-65
2024/04/05 01:03:23;;;;;;;34.00;8.93;;;14.50;99.90;;;14.72;100.00;100775.75;5010000;28;20814;-65
2024/04/05 01:05:51;;;;;;;29.77;8.50;;;14.40;99.90;;;14.67;100.00;100766.13;5009861;28;20044;-65
2024/04/05 01:08:19;;;;;;;35.08;9.70;;;14.30;99.90;;;14.70;100.00;100768.69;5009915;28;20073;-65
2024/04/05 01:10:46;;;;;;;28.13;8.27;;;14.40;99.90;;;14.68;100.00;100783.81;5009709;28;20049;-65
2024/04/05 01:13:14;;;;;;;35.90;10.02;;;14.40;99.90;;;14.58;100.00;100780.50;5010172;28;20076;-65
2024/04/05 01:15:42;;;;;;;30.42;9.38;;;14.30;99.90;;;14.68;100.00;100774.06;5010031;28;20046;-65
2024/04/05 01:18:10;;;;;;;31.25;9.45;;;14.30;99.90;;;14.60;100.00;100775.13;5026478;28;20049;-65
2024/04/05 01:20:39;;;;;;;43.40;8.90;;;14.30;99.90;;;14.61;100.00;100764.47;5009654;28;20041;-65
2024/04/05 01:23:10;;;;;;;34.42;9.13;;;14.30;99.90;;;14.42;100.00;100753.34;5009678;28;20438;-66
2024/04/05 01:25:39;;;;;;;34.42;8.75;;;14.20;99.90;;;14.55;100.00;100759.28;4993368;28;20053;-65
2024/04/05 01:28:11;;;;;;;30.05;8.35;;;14.20;99.90;;;14.46;100.00;100762.13;5009576;28;20713;-66
2024/04/05 01:30:38;;;;;;;35.25;8.98;;;14.20;99.90;;;14.35;100.00;100751.72;5009900;28;20042;-65
2024/04/05 01:33:06;;;;;;;38.40;9.95;;;14.10;99.90;;;14.29;100.00;100737.66;5009664;28;20045;-65
2024/04/05 01:35:34;;;;;;;38.20;9.65;;;14.00;99.90;;;14.44;100.00;100754.19;5009631;28;20076;-65
2024/04/05 01:38:00;;;;;;;33.33;8.63;;;14.10;99.90;;;14.43;100.00;100755.09;5009710;28;20050;-65
2024/04/05 01:40:28;;;;;;;32.55;8.98;;;14.10;99.90;;;14.57;100.00;100773.44;5009432;28;20045;-65
2024/04/05 01:42:56;;;;;;;35.25;9.40;;;14.20;99.90;;;14.57;100.00;100762.78;5010063;28;20049;-66
2024/04/05 01:45:23;;;;;;;32.08;9.45;;;14.20;99.90;;;14.50;100.00;100753.16;5009654;28;20443;-65
2024/04/05 01:47:49;;;;;;;35.03;9.70;;;14.20;99.90;;;14.52;100.00;100764.66;5009465;28;20042;-65
2024/04/05 01:50:18;;;;;;;43.70;11.00;;;14.20;99.90;;;14.47;100.00;100771.88;5010137;28;20038;-65
2024/04/05 01:52:47;;;;;;;51.38;11.98;;;14.20;99.90;;;14.47;100.00;100763.88;5012630;28;20087;-65
2024/04/05 01:55:15;;;;;;;43.10;11.13;;;14.20;99.90;;;14.50;100.00;100758.47;5012635;28;20042;-66
2024/04/05 01:57:42;;;;;;;39.05;11.05;;;14.20;99.90;;;14.50;100.00;100754.97;5012986;28;20046;-65
2024/04/05 02:00:12;;;;;;;40.28;12.43;;;14.20;99.90;;;14.45;100.00;100771.91;5012590;28;20438;-66
2024/04/05 02:02:38;;;;;;;39.90;11.37;;;14.20;99.90;;;14.49;100.00;100746.09;5013168;28;20068;-65
2024/04/05 02:05:07;;;;;;;42.92;11.32;;;14.20;99.90;;;13.97;100.00;100653.22;5012724;28;20060;-65
2024/04/05 02:07:33;;;;;;;39.53;10.57;;;14.20;99.90;;;14.26;100.00;100743.91;4998037;28;20057;-66
2024/04/05 02:10:01;;;;;;;40.47;10.52;;;14.10;99.90;;;14.29;100.00;100729.69;5016336;28;20042;-65
2024/04/05 02:12:28;;;;;;;38.17;10.48;;;14.10;99.90;;;14.13;100.00;100723.78;5016493;28;20041;-65
2024/04/05 02:14:56;;;;;;;35.42;10.95;;;14.00;99.90;;;14.21;100.00;100734.25;5016302;28;20041;-65
2024/04/05 02:17:24;;;;;;;34.78;10.48;;;14.00;99.90;;;14.21;100.00;100740.47;5016719;28;20383;-67
2024/04/05 02:19:51;;;;;;;43.70;10.57;;;14.00;99.90;;;14.12;100.00;100735.34;5016451;28;20103;-66
2024/04/05 02:22:18;;;;;;;39.22;9.82;;;13.90;99.90;;;13.84;100.00;100680.13;4999704;28;20527;-66
2024/04/05 02:24:46;;;;;;;33.42;9.75;;;13.90;99.90;;;14.16;100.00;100728.16;5016202;28;20063;-65
2024/04/05 02:27:13;;;;;;;38.30;10.00;;;13.90;99.90;;;14.13;100.00;100737.09;5016106;28;20045;-65
2024/04/05 02:29:40;;;;;;;40.08;9.68;;;13.90;99.90;;;14.21;100.00;100731.59;5015658;28;20060;-66
2024/04/05 02:32:06;;;;;;;39.25;10.20;;;13.90;99.90;;;14.14;100.00;100719.34;4999854;28;20048;-66
2024/04/05 02:34:35;;;;;;;34.70;9.80;;;13.90;99.90;;;14.07;100.00;100718.59;5015889;28;20041;-66
2024/04/05 02:37:02;;;;;;;34.75;9.00;;;13.90;99.90;;;14.16;100.00;100709.56;5016052;28;20050;-66
2024/04/05 02:39:30;;;;;;;32.63;9.13;;;13.90;99.90;;;14.20;100.00;100724.53;5015599;28;20121;-66
2024/04/05 02:41:56;;;;;;;35.25;9.68;;;13.90;99.90;;;14.11;100.00;100703.47;5015658;28;20045;-66
2024/04/05 02:44:25;;;;;;;32.67;8.80;;;13.90;99.90;;;14.24;100.00;100697.84;5015700;28;20041;-66
2024/04/05 02:46:52;;;;;;;37.60;9.65;;;14.00;99.90;;;14.21;100.00;100695.22;5015658;28;20141;-65
2024/04/05 02:49:19;;;;;;;41.20;10.38;;;14.00;99.90;;;14.25;100.00;100696.03;5015412;28;20099;-66
2024/04/05 02:51:48;;;;;;;40.67;9.13;;;14.00;99.90;;;14.16;100.00;100685.63;5012170;28;20058;-66
2024/04/05 02:54:15;;;;;;;33.25;8.75;;;14.00;99.90;;;14.39;100.00;100694.88;5012101;28;20042;-66
2024/04/05 02:56:41;;;;;;;31.75;8.82;;;14.10;99.90;;;14.37;100.00;100703.78;4996127;28;20069;-66
2024/04/05 02:59:09;;;;;;;34.53;9.05;;;14.10;99.90;;;14.37;100.00;100707.34;5012339;28;20042;-66
2024/04/05 03:01:35;;;;;;;31.50;8.27;;;14.10;99.90;;;14.43;100.00;100712.53;4995884;28;20080;-65
2024/04/05 03:04:02;;;;;;;35.72;9.30;;;14.10;99.90;;;14.52;100.00;100702.59;5012528;28;20046;-64
2024/04/05 03:06:29;;;;;;;30.77;9.05;;;14.20;99.90;;;14.51;100.00;100709.69;5011868;28;20038;-64
2024/04/05 03:08:57;;;;;;;33.10;9.65;;;14.20;99.90;;;14.42;100.00;100708.09;5011774;28;20049;-64
2024/04/05 03:11:24;;;;;;;37.45;9.95;;;14.20;99.90;;;14.53;100.00;100702.53;5011861;28;20095;-64
2024/04/05 03:13:51;;;;;;;28.13;8.80;;;14.20;99.90;;;14.55;100.00;100700.72;5011774;28;20034;-63
2024/04/05 03:16:17;;;;;;;27.30;8.55;;;14.30;99.90;;;14.52;100.00;100687.47;5011721;28;20042;-64
2024/04/05 03:18:45;;;;;;;28.58;8.63;;;14.30;99.90;;;14.55;100.00;100690.06;5011689;28;20062;-64
2024/04/05 03:21:11;;;;;;;33.75;9.32;;;14.30;99.90;;;14.36;100.00;100662.13;5011635;28;20530;-64
2024/04/05 03:23:39;;;;;;;29.25;8.82;;;14.20;99.90;;;14.58;100.00;100676.69;5011633;28;20411;-64
2024/04/05 03:26:08;;;;;;;24.85;8.55;;;14.30;99.90;;;14.61;100.00;100658.00;5011613;28;20100;-64
2024/04/05 03:28:35;;;;;;;29.35;8.75;;;14.30;99.90;;;14.56;100.00;100661.63;5011589;28;20096;-63
2024/04/05 03:31:03;;;;;;;26.77;8.65;;;14.30;99.90;;;14.53;100.00;100659.06;5011370;28;20173;-64
2024/04/05 03:33:32;;;;;;;41.10;9.35;;;14.30;99.90;;;14.50;100.00;100657.34;5011578;28;20407;-64
2024/04/05 03:36:03;;;;;;;28.83;8.20;;;14.20;99.90;;;14.58;100.00;100662.47;5011321;28;20403;-64
2024/04/05 03:38:31;;;;;;;29.95;8.98;;;14.30;99.90;;;14.56;100.00;100643.91;5011479;28;20054;-64
2024/04/05 03:40:58;;;;;;;27.10;9.00;;;14.30;99.90;;;14.63;100.00;100649.97;5011293;28;20064;-64
2024/04/05 03:43:27;;;;;;;29.95;9.95;;;14.30;99.90;;;14.53;100.00;100648.41;5011098;28;20050;-64
2024/04/05 03:45:53;;;;;;;33.42;8.85;;;14.30;99.90;;;14.59;100.00;100650.94;5011170;28;20042;-64
2024/04/05 03:48:20;;;;;;;34.33;9.70;;;14.30;99.90;;;14.69;100.00;100652.47;5011014;28;20045;-64
2024/04/05 03:50:47;;;;;;;28.70;9.05;;;14.40;99.90;;;14.62;100.00;100654.41;5011026;28;20057;-64
2024/04/05 03:53:14;;;;;;;34.05;9.80;;;14.40;99.90;;;14.69;100.00;100657.78;5011351;28;20037;-64
2024/04/05 03:55:40;;;;;;;27.35;9.20;;;14.40;99.90;;;14.70;100.00;100671.06;4994873;28;20104;-64
2024/04/05 03:58:08;;;;;;;32.45;8.90;;;14.40;99.90;;;14.82;100.00;100653.91;5011341;28;20087;-64
2024/04/05 04:00:35;;;;;;;32.80;9.02;;;14.50;99.90;;;14.82;100.00;100641.47;5011127;28;20057;-64
2024/04/05 04:03:03;;;;;;;27.30;9.40;;;14.60;99.90;;;14.80;100.00;100653.94;5010942;28;20121;-64
2024/04/05 04:05:29;;;;;;;27.77;8.38;;;14.50;99.90;;;14.86;100.00;100636.94;5010802;28;20042;-64
2024/04/05 04:07:57;;;;;;;23.35;8.32;;;14.60;99.90;;;14.86;100.00;100624.50;5027059;28;20046;-64
2024/04/05 04:10:24;;;;;;;26.90;8.98;;;14.60;99.90;;;14.83;100.00;100613.91;5010878;28;20038;-64
2024/04/05 04:12:52;;;;;;;29.88;9.85;;;14.50;99.90;;;14.76;100.00;100603.47;5010683;28;20050;-64
2024/04/05 04:15:19;;;;;;;24.52;8.93;;;14.50;99.90;;;14.77;100.00;100605.22;5010869;28;20034;-64
2024/04/05 04:17:47;;;;;;;31.92;8.93;;;14.50;99.90;;;14.65;100.00;100582.47;5010694;28;20410;-63
2024/04/05 04:20:15;;;;;;;22.67;8.30;;;14.50;99.90;;;14.65;100.00;100608.19;5010517;28;20518;-64
2024/04/05 04:22:42;;;;;;;23.90;8.68;;;14.40;99.90;;;14.68;100.00;100601.00;5011184;28;20076;-64
2024/04/05 04:25:08;;;;;;;22.75;7.85;;;14.40;99.90;;;14.74;100.00;100615.94;5010643;28;20046;-64
2024/04/05 04:27:36;;;;;;;25.23;8.15;;;14.40;99.90;;;14.75;100.00;100612.38;5010630;28;20061;-65
2024/04/05 04:30:04;;;;;;;22.83;8.02;;;14.40;99.90;;;14.77;100.00;100614.06;4993567;28;20434;-64
2024/04/05 04:32:34;;;;;;;24.95;8.55;;;14.50;99.90;;;14.77;100.00;100584.78;5010401;28;20050;-64
2024/04/05 04:35:03;;;;;;;23.00;8.68;;;14.50;99.90;;;14.89;100.00;100586.25;5010367;28;20041;-64
2024/04/05 04:37:30;;;;;;;25.42;8.73;;;14.50;99.90;;;14.76;100.00;100584.84;5010238;28;20044;-67
2024/04/05 04:39:57;;;;;;;25.02;7.80;;;14.50;99.90;;;14.65;100.00;100595.78;5010147;28;20038;-66
2024/04/05 04:42:24;;;;;;;28.52;8.73;;;14.40;99.90;;;14.70;100.00;100593.84;5010879;28;20391;-66
2024/04/05 04:44:54;;;;;;;21.63;7.25;;;14.40;99.90;;;14.71;100.00;100595.59;5010198;28;20041;-66
2024/04/05 04:47:21;;;;;;;19.27;8.18;;;14.40;99.90;;;14.75;100.00;100596.41;5010270;28;20092;-66
2024/04/05 04:49:48;;;;;;;27.45;8.10;;;14.50;99.90;;;14.67;100.00;100599.28;5009990;28;20038;-65
2024/04/05 04:52:17;;;;;;;26.70;7.88;;;14.40;99.90;;;14.61;100.00;100593.22;5009854;28;20112;-66
2024/04/05 04:54:43;;;;;;;27.10;8.32;;;14.40;99.90;;;14.61;100.00;100586.13;5010390;28;20054;-66
2024/04/05 04:57:11;;;;;;;22.70;7.15;;;14.40;99.90;;;14.68;100.00;100597.47;5010253;28;20071;-66
2024/04/05 04:59:37;;;;;;;24.42;7.30;;;14.40;99.90;;;14.80;100.00;100602.47;5010025;28;20033;-67
2024/04/05 05:02:05;;;;;;;18.85;7.03;;;14.50;99.90;;;14.63;100.00;100604.69;5010021;28;20050;-65
2024/04/05 05:04:31;;;;;;;25.38;7.97;;;14.40;99.90;;;14.44;100.00;100599.81;5010106;28;20042;-66
2024/04/05 05:06:59;;;;;;;23.88;8.20;;;14.30;99.90;;;14.50;100.00;100589.97;4993372;28;20061;-66
2024/04/05 05:09:27;;;;;;;19.98;7.35;;;14.30;99.90;;;14.52;100.00;100591.66;5009756;28;20045;-66
2024/04/05 05:11:54;;;;;;;27.15;7.35;;;14.30;99.90;;;14.50;100.00;100579.31;5009748;28;20042;-66
2024/04/05 05:14:21;;;;;;;19.58;7.25;;;14.30;99.90;;;14.53;100.00;100569.47;5009925;28;20064;-65
2024/04/05 05:16:48;;;;;;;24.40;7.97;;;14.30;99.90;;;14.51;100.00;100571.28;5009762;28;20045;-66
2024/04/05 05:19:14;;;;;;;20.02;7.28;;;14.30;99.90;;;14.64;100.00;100575.38;4993414;28;20050;-66
2024/04/05 05:21:42;;;;;;;20.92;7.10;;;14.40;99.90;;;14.57;100.00;100568.47;5009748;28;20041;-66
2024/04/05 05:24:08;;;;;;;23.70;7.82;;;14.40;99.90;;;14.56;100.00;100577.34;5009632;28;20049;-66
2024/04/05 05:26:37;;;;;;;19.45;7.78;;;14.40;99.90;;;14.44;100.00;100569.66;5010178;28;20136;-66
2024/04/05 05:29:04;;;;;;;27.92;7.68;;;14.30;99.90;;;14.49;100.00;100557.13;4993287;28;20408;-66
2024/04/05 05:31:31;;;;;;;25.27;8.60;;;14.30;99.90;;;14.37;100.00;100550.34;5010078;28;20104;-66
2024/04/05 05:33:57;;;;;;;17.23;7.47;;;14.20;99.90;;;14.37;100.00;100547.69;5009694;28;20042;-66
2024/04/05 05:36:25;;;;;;;24.00;8.38;;;14.20;99.90;;;14.26;100.00;100532.84;5009754;28;20038;-66
2024/04/05 05:38:52;;;;;;;23.13;8.80;;;14.20;99.90;;;14.28;100.00;100539.94;5010107;28;20038;-66
2024/04/05 05:41:20;;;;;;;27.10;8.73;;;14.10;99.90;;;14.28;100.00;100552.34;5011123;28;20064;-66
2024/04/05 05:43:47;;;;;;;22.65;9.25;;;14.10;99.90;;;14.13;100.00;100547.38;4997160;28;20509;-65
2024/04/05 05:46:15;;;;;;;26.38;8.93;;;14.00;99.90;;;14.13;100.00;100531.41;5013674;28;20092;-66
2024/04/05 05:48:41;;;;;;;22.90;8.60;;;13.90;99.90;;;14.10;100.00;100524.38;5013230;28;20041;-66
2024/04/05 05:51:09;;;;;;;19.73;8.60;;;13.90;99.90;;;14.06;100.00;100530.69;5013093;28;20057;-66
2024/04/05 05:53:35;;;;;;;24.27;8.90;;;13.90;99.90;;;14.14;100.00;100527.84;5013782;28;20124;-68
2024/04/05 05:56:03;;;;;;;26.92;9.20;;;13.90;99.90;;;14.14;100.00;100517.19;5013316;28;20037;-67
2024/04/05 05:58:29;;;;;;;24.02;8.82;;;13.90;99.90;;;14.18;100.00;100510.88;5013251;28;20046;-66
2024/04/05 06:00:58;;;;;;;23.92;8.73;;;13.90;99.90;;;14.11;100.00;100507.50;5013159;28;20037;-66
2024/04/05 06:03:25;;;;;;;21.95;9.40;;;13.90;99.90;;;13.97;100.00;100509.63;5012935;28;20137;-67
2024/04/05 06:05:53;;;;;;;25.15;8.60;;;13.80;99.90;;;13.90;100.00;100505.34;5013475;28;20038;-67
2024/04/05 06:08:20;;;;;;;22.33;8.82;;;13.70;99.90;;;13.91;100.00;100496.47;5012982;28;20058;-66
2024/04/05 06:10:56;;;;;;;31.25;8.55;;;13.70;99.90;;;13.82;100.00;100482.53;5013024;28;20071;-66
2024/04/05 06:13:23;;;;;;;22.70;8.27;;;13.60;99.90;;;13.93;100.00;100496.44;5013613;28;20050;-67
2024/04/05 06:15:55;;;;;;;24.67;8.73;;;13.60;99.90;;;13.95;100.00;100489.31;5013165;28;20093;-67
2024/04/05 06:18:26;;;;;;;27.13;8.65;;;13.70;99.90;;;14.00;100.00;100493.59;4996505;28;20507;-66
2024/04/05 06:20:55;;;;;;;23.88;8.20;;;13.70;99.90;;;13.50;100.00;100404.44;5012927;28;20042;-67
2024/04/05 06:23:21;;;;;;;23.35;8.10;;;13.70;99.90;;;13.93;100.00;100481.38;5012687;28;20583;-67
2024/04/05 06:25:54;;;;;;;26.75;8.80;;;13.70;99.90;;;13.88;100.00;100466.44;5012702;28;20045;-66
2024/04/05 06:28:20;;;;;;;24.55;8.27;;;13.60;99.90;;;13.95;100.00;100444.09;5012593;28;20046;-66
2024/04/05 06:30:48;;;;;;;27.83;8.40;;;13.70;99.90;;;13.99;100.00;100449.31;5012688;28;20070;-66
2024/04/05 06:33:15;;;;;;;28.15;8.38;;;13.70;99.90;;;13.96;100.00;100470.66;5012802;28;20034;-67
2024/04/05 06:35:44;;;;;;;25.83;8.32;;;13.70;99.90;;;14.01;100.00;100451.94;5012463;28;20088;-67
2024/04/05 06:38:11;;;;;;;20.80;8.70;;;13.70;99.90;;;14.06;100.00;100434.06;5012472;28;20088;-68
2024/04/05 06:40:39;;;;;;;21.23;7.38;;;13.80;99.90;;;14.06;100.00;100428.75;5012568;28;20054;-68
2024/04/05 06:43:07;;;;;;;24.15;8.63;;;13.80;99.90;;;14.07;100.00;100435.81;5012297;28;20042;-70
2024/04/05 06:45:34;;;;;;;20.95;7.72;;;13.80;99.90;;;14.09;100.00;100434.84;5012117;28;20380;-69
2024/04/05 06:48:01;;;;;;;22.60;7.47;;;13.80;99.90;;;13.99;100.00;100406.78;5012233;28;20384;-69
2024/04/05 06:50:35;;;;;;;29.58;8.43;;;13.90;99.90;;;14.18;100.00;100423.09;5012442;28;20177;-70
2024/04/05 06:53:07;;;;;;;29.75;8.10;;;13.90;99.90;;;14.21;100.00;100423.00;5015006;28;20044;-69
2024/04/05 06:55:34;;;;;;;24.92;8.65;;;14.00;99.90;;;14.21;100.00;100404.38;5015451;28;20411;-69
2024/04/05 06:58:01;;;;;;;21.80;7.72;;;14.00;99.90;;;14.16;100.00;100393.91;5015632;28;20045;-69
2024/04/05 07:00:28;;;;;;;25.05;7.50;;;14.00;99.90;;;14.12;100.00;100386.91;5015578;28;20119;-66
2024/04/05 07:02:55;;;;;;;18.75;6.95;;;13.90;99.90;;;14.21;100.00;100391.09;5015587;28;20041;-67
2024/04/05 07:05:22;;;;;;;19.25;6.85;;;13.90;99.90;;;14.19;100.00;100396.47;5015191;28;20049;-67
2024/04/05 07:07:49;;;;;;;21.00;7.57;;;13.90;99.90;;;14.27;100.00;100401.56;4999205;28;20604;-66
2024/04/05 07:10:18;;;;;;;16.67;6.47;;;14.00;99.90;;;14.21;100.00;100384.00;5015058;28;20053;-66
2024/04/05 07:12:48;;;;;;;22.48;7.40;;;14.00;99.90;;;14.29;100.00;100384.69;5015166;28;20055;-67
2024/04/05 07:15:15;;;;;;;20.05;7.03;;;14.00;99.90;;;14.30;100.00;100394.41;5015141;28;20068;-68
2024/04/05 07:17:42;;;;;;;18.27;7.00;;;14.10;99.90;;;14.41;100.00;100404.78;5015215;28;20042;-67
2024/04/05 07:20:11;;;;;;;14.05;6.63;;;14.10;99.90;;;14.50;100.00;100406.31;5015188;28;20076;-67
2024/04/05 07:22:37;;;;;;;19.08;7.55;;;14.30;99.90;;;14.47;100.00;100409.94;5015020;28;20045;-67
2024/04/05 07:25:07;;;;;;;21.58;7.78;;;14.20;99.90;;;14.42;100.00;100404.72;5014863;28;20044;-68
2024/04/05 07:27:35;;;;;;;22.02;6.78;;;14.20;99.90;;;14.38;100.00;100397.75;5014946;28;20471;-67
2024/04/05 07:30:04;;;;;;;18.50;6.75;;;14.10;99.90;;;14.08;100.00;100358.66;5014591;28;20407;-68
2024/04/05 07:32:31;;;;;;;15.25;6.53;;;14.10;99.90;;;14.42;100.00;100385.22;5014868;28;20052;-68
2024/04/05 07:34:58;;;;;;;16.17;6.18;;;14.20;99.90;;;14.56;100.00;100419.44;5014705;28;20061;-67
2024/04/05 07:37:25;;;;;;;19.98;6.75;;;14.30;99.90;;;14.33;100.00;100364.19;5014729;28;20052;-67
2024/04/05 07:39:55;;;;;;;14.98;6.25;;;14.20;99.90;;;14.49;100.00;100389.47;5014803;28;20048;-66
2024/04/05 07:42:21;;;;;;;20.15;7.15;;;14.30;99.90;;;14.46;100.00;100377.13;4998441;28;20573;-67
2024/04/05 07:44:54;;;;;;;19.35;7.80;;;14.20;99.90;;;14.49;100.00;100365.53;4998145;28;20099;-68
2024/04/05 07:47:21;;;;;;;17.67;6.40;;;14.30;99.90;;;14.37;100.00;100341.91;5014659;28;20502;-68
2024/04/05 07:49:53;;;;;;;14.32;5.82;;;14.30;99.90;;;14.45;100.00;100372.72;5014595;28;20175;-67
2024/04/05 07:52:20;;;;;;;15.05;5.90;;;14.20;99.90;;;14.52;100.00;100372.56;5014420;28;20061;-68
2024/04/05 07:54:47;;;;;;;15.30;5.93;;;14.30;99.90;;;14.55;100.00;100362.69;5014487;28;20045;-69
2024/04/05 07:57:14;;;;;;;17.63;6.70;;;14.30;99.90;;;14.43;100.00;100376.34;5014445;28;20116;-67
2024/04/05 07:59:41;;;;;;;15.35;6.43;;;14.30;99.90;;;14.44;100.00;100367.41;4998076;28;20087;-68
2024/04/05 08:02:09;;;;;;;15.90;6.05;;;14.30;99.90;;;14.46;100.00;100390.41;4997893;28;20049;-68
2024/04/05 08:04:37;;;;;;;17.60;6.65;;;14.20;99.90;;;14.51;100.00;100379.66;5013518;28;20056;-68
2024/04/05 08:07:04;;;;;;;17.42;6.25;;;14.30;99.90;;;14.55;100.00;100389.31;5014285;28;20046;-68
2024/04/05 08:09:32;;;;;;;14.15;6.45;;;14.30;99.90;;;14.55;100.00;100397.28;5013919;28;20072;-68
2024/04/05 08:11:58;;;;;;;11.93;6.20;;;14.30;99.90;;;14.57;100.00;100399.91;4997884;28;20049;-68
2024/04/05 08:14:26;;;;;;;19.17;6.50;;;14.30;99.90;;;14.63;100.00;100405.94;5014061;28;20045;-67
2024/04/05 08:16:53;;;;;;;19.05;6.65;;;14.40;99.90;;;14.63;100.00;100399.72;5013917;28;20041;-68
2024/04/05 08:19:22;;;;;;;16.08;6.35;;;14.40;99.90;;;14.73;100.00;100425.19;4997884;28;20049;-68
2024/04/05 08:21:48;;;;;;;15.02;6.13;;;14.50;99.90;;;14.77;100.00;100422.38;4997762;28;20049;-67
2024/04/05 08:24:16;;;;;;;18.05;5.97;;;14.50;99.90;;;14.83;100.00;100398.22;5014140;28;20041;-67
2024/04/05 08:26:45;;;;;;;13.90;5.97;;;14.60;99.90;;;14.94;100.00;100403.25;4997694;28;20048;-67
2024/04/05 08:29:12;;;;;;;11.68;5.53;;;14.70;99.90;;;14.98;100.00;100400.44;5013858;28;20041;-67
2024/04/05 08:31:38;;;;;;;13.60;5.78;;;14.70;99.90;;;14.39;100.00;100300.16;5013740;28;20049;-67
2024/04/05 08:34:06;;;;;;;14.05;6.05;;;14.80;99.90;;;14.93;100.00;100410.38;5013725;28;20057;-68
2024/04/05 08:36:34;;;;;;;13.50;6.28;;;14.80;99.90;;;15.13;100.00;100404.44;5013691;28;20558;-68
2024/04/05 08:39:01;;;;;;;14.10;6.40;;;14.90;99.90;;;15.16;100.00;100407.88;5013581;28;20053;-68
2024/04/05 08:41:29;;;;;;;14.85;5.93;;;14.90;99.90;;;15.11;100.00;100414.28;5014030;28;20053;-68
2024/04/05 08:43:59;;;;;;;11.75;5.75;;;14.90;99.90;;;14.45;100.00;100289.34;5013869;28;20049;-67
2024/04/05 08:46:26;;;;;;;15.63;6.30;;;14.90;99.90;;;15.03;100.00;100382.53;5013651;28;20049;-69
2024/04/05 08:48:55;;;;;;;12.38;5.70;;;14.90;99.90;;;15.06;100.00;100400.22;4997237;28;20096;-70
2024/04/05 08:51:21;;;;;;;13.82;5.93;;;14.90;99.90;;;15.19;100.00;100405.09;5013288;28;20534;-69
2024/04/05 08:53:50;;;;;;;11.23;5.45;;;14.90;99.90;;;15.28;100.00;100423.50;5013581;28;20406;-72
2024/04/05 08:56:17;;;;;;;13.05;5.32;;;15.00;99.90;;;15.24;100.00;100399.66;5013158;28;20053;-70
2024/04/05 08:58:46;;;;;;;10.77;5.57;;;15.00;99.90;;;15.28;100.00;100403.97;5013308;28;20057;-71
2024/04/05 09:01:12;;;;;;;10.52;4.93;;;15.00;99.90;;;15.34;100.00;100422.44;4997007;28;20049;-70
2024/04/05 09:03:40;;;;;;;13.35;5.20;;;15.00;99.90;;;15.38;100.00;100416.97;5013136;28;20038;-67
2024/04/05 09:06:07;;;;;;;10.95;5.95;;;15.10;99.90;;;15.44;100.00;100431.03;5013542;28;20060;-69
2024/04/05 09:08:44;;;;;;;8.73;5.03;;;15.20;99.90;;;15.38;100.00;100402.75;5013348;28;20041;-67
2024/04/05 09:11:19;;;;;;;13.18;5.63;;;15.10;99.90;;;15.42;100.00;100419.56;5013093;28;20049;-68
2024/04/05 09:13:57;;;;;;;13.15;4.82;;;15.10;99.90;;;15.46;100.00;100395.44;4996877;28;20045;-68
2024/04/05 09:16:25;;;;;;;10.38;5.03;;;15.20;99.90;;;15.50;100.00;100389.09;5013119;28;20137;-68
2024/04/05 09:18:53;;;;;;;10.70;5.07;;;15.20;99.90;;;15.57;100.00;100387.09;5013021;28;20049;-68
2024/04/05 09:21:19;;;;;;;10.18;4.80;;;15.20;99.90;;;15.53;100.00;100370.31;5013165;28;20050;-67
2024/04/05 09:23:48;;;;;;;9.80;5.30;;;15.20;99.90;;;15.55;100.00;100378.25;5013036;28;20046;-67
2024/04/05 09:26:19;;;;;;;10.48;5.55;;;15.30;99.90;;;15.58;100.00;100386.19;5013470;28;20049;-67
2024/04/05 09:28:58;;;;;;;9.68;4.50;;;15.30;99.90;;;15.43;100.00;100338.69;5013031;28;20044;-67
2024/04/05 09:31:25;;;;;;;9.32;4.85;;;15.40;99.90;;;15.75;100.00;100397.16;5013296;28;20046;-67
2024/04/05 09:34:06;;;;;;;8.55;5.00;;;15.40;99.90;;;15.77;100.00;100376.66;5013151;28;20095;-68
2024/04/05 09:36:35;;;;;;;12.32;5.15;;;15.50;99.90;;;15.94;100.00;100380.50;5013130;28;20054;-67
2024/04/05 09:39:03;;;;;;;10.88;4.90;;;15.60;99.90;;;15.89;100.00;100389.56;5013227;28;20087;-68
2024/04/05 09:41:34;;;;;;;12.73;5.50;;;15.60;99.90;;;15.92;100.00;100373.44;5012907;28;20476;-68
2024/04/05 09:44:03;;;;;;;;;;;15.70;99.90;;;15.93;100.00;100353.88;5013536;28;20124;-68
2024/04/05 09:46:32;;;;;;;10.00;5.13;;;15.70;99.90;;;15.84;100.00;100343.50;5013431;28;19925;-67
2024/04/05 09:49:01;;;;;;;11.15;4.82;;;15.70;99.90;;;16.07;100.00;100360.47;5012657;28;20102;-67
2024/04/05 09:51:44;;;;;;;9.20;5.00;;;15.80;99.90;;;15.90;100.00;100338.84;5012777;28;20054;-68
2024/04/05 09:54:11;;;;;;;8.63;4.65;;;15.80;99.90;;;16.15;100.00;100346.84;5012784;28;20046;-68
2024/04/05 09:56:41;;;;;;;11.02;5.63;;;15.90;99.90;;;16.24;100.00;100362.50;5012730;28;20060;-67
2024/04/05 09:59:10;;;;;;;;;;;15.90;99.90;;;16.07;100.00;100332.91;5013074;28;20055;-69
2024/04/05 10:01:41;;;;;;;10.93;4.90;;;16.00;99.90;;;16.20;100.00;100334.22;5012967;28;20289;-67
2024/04/05 10:04:08;;;;;;;9.73;5.50;;;15.90;99.90;;;16.25;100.00;100334.91;5012795;28;20076;-67